createdAt,value
2018-06-28T00:02:17.449Z,19.98
2018-06-28T00:04:46.569Z,19.81
2018-06-28T00:07:15.690Z,19.72
2018-06-28T00:09:44.930Z,19.77
2018-06-28T00:12:14.046Z,19.56
2018-06-28T00:14:43.166Z,19.60
2018-06-28T00:17:12.337Z,19.57
2018-06-28T00:19:42.594Z,19.40
2018-06-28T00:22:13.971Z,19.40
2018-06-28T00:24:44.164Z,19.11
2018-06-28T00:27:15.402Z,18.93
2018-06-28T00:29:45.650Z,18.86
2018-06-28T00:32:15.850Z,19.08
2018-06-28T00:34:45.062Z,19.22
2018-06-28T00:37:14.183Z,19.23
2018-06-28T00:39:43.274Z,19.20
2018-06-28T00:42:12.429Z,19.05
2018-06-28T00:44:41.525Z,19.01
2018-06-28T00:47:10.744Z,18.89
2018-06-28T00:49:39.846Z,18.78
2018-06-28T00:52:09.022Z,18.80
2018-06-28T00:54:38.129Z,18.85
2018-06-28T00:57:07.290Z,18.64
2018-06-28T00:59:36.433Z,18.63
2018-06-28T01:02:05.637Z,18.60
2018-06-28T01:04:34.742Z,18.55
2018-06-28T01:07:03.872Z,18.43
2018-06-28T01:09:33.022Z,18.54
2018-06-28T01:12:02.162Z,18.43
2018-06-28T01:14:31.314Z,18.52
2018-06-28T01:17:00.456Z,18.34
2018-06-28T01:19:29.585Z,18.57
2018-06-28T01:21:58.710Z,18.41
2018-06-28T01:24:27.886Z,18.42
2018-06-28T01:27:02.186Z,18.31
2018-06-28T01:29:31.326Z,18.21
2018-06-28T01:32:00.491Z,18.10
2018-06-28T01:34:29.629Z,18.20
2018-06-28T01:36:58.765Z,18.17
2018-06-28T01:39:27.905Z,18.13
2018-06-28T01:42:08.294Z,18.10
2018-06-28T01:44:37.406Z,18.02
2018-06-28T01:47:06.516Z,18.14
2018-06-28T01:49:36.633Z,18.06
2018-06-28T01:52:05.778Z,17.65
2018-06-28T01:54:34.887Z,17.83
2018-06-28T01:57:04.082Z,17.79
2018-06-28T01:59:33.265Z,17.85
2018-06-28T02:02:02.409Z,17.58
2018-06-28T02:04:31.494Z,17.57
2018-06-28T02:07:00.615Z,17.72
2018-06-28T02:09:29.732Z,17.76
2018-06-28T02:11:58.864Z,17.63
2018-06-28T02:14:27.998Z,17.47
2018-06-28T02:16:57.110Z,17.61
2018-06-28T02:19:29.730Z,17.36
2018-06-28T02:21:58.850Z,16.91
2018-06-28T02:24:28.185Z,17.07
2018-06-28T02:26:57.285Z,16.93
2018-06-28T02:29:26.409Z,17.17
2018-06-28T02:31:55.514Z,17.41
2018-06-28T02:34:24.616Z,16.98
2018-06-28T02:36:53.718Z,17.26
2018-06-28T02:39:22.834Z,17.19
2018-06-28T02:41:52.003Z,17.18
2018-06-28T02:44:21.148Z,17.18
2018-06-28T02:46:50.267Z,17.27
2018-06-28T02:49:19.369Z,16.84
2018-06-28T02:51:48.495Z,17.05
2018-06-28T02:54:17.663Z,16.74
2018-06-28T02:56:46.798Z,16.62
2018-06-28T02:59:15.930Z,16.72
2018-06-28T03:01:45.032Z,16.82
2018-06-28T03:04:14.162Z,16.78
2018-06-28T03:06:43.290Z,16.78
2018-06-28T03:09:14.442Z,16.49
2018-06-28T03:11:43.557Z,16.84
2018-06-28T03:14:12.666Z,16.78
2018-06-28T03:16:41.768Z,16.49
2018-06-28T03:19:10.875Z,16.32
2018-06-28T03:21:39.982Z,16.41
2018-06-28T03:24:09.130Z,16.30
2018-06-28T03:26:38.237Z,16.41
2018-06-28T03:29:07.428Z,16.66
2018-06-28T03:31:36.919Z,16.38
2018-06-28T03:34:06.166Z,16.42
2018-06-28T03:36:35.341Z,16.51
2018-06-28T03:39:06.730Z,16.59
2018-06-28T03:41:35.814Z,16.45
2018-06-28T03:44:05.122Z,16.54
2018-06-28T03:46:34.234Z,16.45
2018-06-28T03:49:03.560Z,16.30
2018-06-28T03:51:32.669Z,16.38
2018-06-28T03:54:01.792Z,16.18
2018-06-28T03:56:30.926Z,16.30
2018-06-28T03:59:00.070Z,16.09
2018-06-28T04:01:29.219Z,16.38
2018-06-28T04:03:58.642Z,16.28
2018-06-28T04:06:27.972Z,16.41
2018-06-28T04:08:57.105Z,16.42
2018-06-28T04:11:26.278Z,16.23
2018-06-28T04:13:55.374Z,16.30
2018-06-28T04:16:24.494Z,16.24
2018-06-28T04:18:53.602Z,16.31
2018-06-28T04:21:22.730Z,16.33
2018-06-28T04:23:51.825Z,16.36
2018-06-28T04:26:20.926Z,16.26
2018-06-28T04:28:50.093Z,16.29
2018-06-28T04:31:19.331Z,16.43
2018-06-28T04:33:48.442Z,16.23
2018-06-28T04:36:17.558Z,16.41
2018-06-28T04:38:46.683Z,16.46
2018-06-28T04:41:15.774Z,16.35
2018-06-28T04:43:44.882Z,16.55
2018-06-28T04:46:13.985Z,16.58
2018-06-28T04:48:43.086Z,16.46
2018-06-28T04:51:12.306Z,16.66
2018-06-28T04:53:41.402Z,16.78
2018-06-28T04:56:10.597Z,16.76
2018-06-28T04:58:39.717Z,16.78
2018-06-28T05:01:08.854Z,16.72
2018-06-28T05:03:38.110Z,16.91
2018-06-28T05:06:07.202Z,16.91
2018-06-28T05:08:36.322Z,17.10
2018-06-28T05:11:05.467Z,17.01
2018-06-28T05:13:34.598Z,17.07
2018-06-28T05:16:03.732Z,17.05
2018-06-28T05:18:32.922Z,17.17
2018-06-28T05:21:02.107Z,17.20
2018-06-28T05:23:32.332Z,17.21
2018-06-28T05:26:01.455Z,17.23
2018-06-28T05:28:30.841Z,17.34
2018-06-28T05:31:00.293Z,17.41
2018-06-28T05:33:29.406Z,17.59
2018-06-28T05:35:58.934Z,17.40
2018-06-28T05:38:28.042Z,17.59
2018-06-28T05:40:57.142Z,17.59
2018-06-28T05:43:26.306Z,17.61
2018-06-28T05:45:55.770Z,17.72
2018-06-28T05:48:24.945Z,17.75
2018-06-28T05:50:54.174Z,17.83
2018-06-28T05:53:23.826Z,17.92
2018-06-28T05:55:52.927Z,17.98
2018-06-28T05:58:22.037Z,18.08
2018-06-28T06:00:51.206Z,18.06
2018-06-28T06:03:20.307Z,18.23
2018-06-28T06:05:49.413Z,18.31
2018-06-28T06:08:18.583Z,18.42
2018-06-28T06:10:47.722Z,18.40
2018-06-28T06:13:16.859Z,18.49
2018-06-28T06:15:45.982Z,18.63
2018-06-28T06:18:15.082Z,18.78
2018-06-28T06:20:44.207Z,18.89
2018-06-28T06:23:13.309Z,19.04
2018-06-28T06:25:42.426Z,19.16
2018-06-28T06:28:11.557Z,19.33
2018-06-28T06:30:40.754Z,19.41
2018-06-28T06:33:09.886Z,19.43
2018-06-28T06:35:39.065Z,19.58
2018-06-28T06:38:08.206Z,19.70
2018-06-28T06:40:37.404Z,19.89
2018-06-28T06:43:06.578Z,19.83
2018-06-28T06:45:35.754Z,19.71
2018-06-28T06:48:04.934Z,20.06
2018-06-28T06:50:34.078Z,20.12
2018-06-28T06:53:03.234Z,20.36
2018-06-28T06:55:32.366Z,20.31
2018-06-28T06:58:01.521Z,20.65
2018-06-28T07:00:30.657Z,20.62
2018-06-28T07:02:59.798Z,21.12
2018-06-28T07:05:28.917Z,21.66
2018-06-28T07:07:58.030Z,21.26
2018-06-28T07:10:27.277Z,22.01
2018-06-28T07:12:56.250Z,21.91
2018-06-28T07:15:25.370Z,21.94
2018-06-28T07:17:54.562Z,21.88
2018-06-28T07:20:23.698Z,21.79
2018-06-28T07:22:52.870Z,22.05
2018-06-28T07:25:21.922Z,22.23
2018-06-28T07:27:51.031Z,22.20
2018-06-28T07:30:20.150Z,22.56
2018-06-28T07:32:49.413Z,23.06
2018-06-28T07:35:18.426Z,22.80
2018-06-28T07:37:47.581Z,22.75
2018-06-28T07:40:16.711Z,24.52
2018-06-28T07:42:45.879Z,24.01
2018-06-28T07:45:14.998Z,23.88
2018-06-28T07:47:44.122Z,24.08
2018-06-28T07:50:13.280Z,24.43
2018-06-28T07:52:42.426Z,24.14
2018-06-28T07:55:11.546Z,24.81
2018-06-28T07:57:40.661Z,24.94
2018-06-28T08:00:09.996Z,24.12
2018-06-28T08:02:39.154Z,25.11
2018-06-28T08:05:08.274Z,25.83
2018-06-28T08:07:37.406Z,25.32
2018-06-28T08:10:06.550Z,25.59
2018-06-28T08:12:35.734Z,24.88
2018-06-28T08:15:05.038Z,26.24
2018-06-28T08:17:35.402Z,26.51
2018-06-28T08:20:06.329Z,25.67
2018-06-28T08:22:35.458Z,26.03
2018-06-28T08:25:05.310Z,26.17
2018-06-28T08:27:34.789Z,26.49
2018-06-28T08:30:04.002Z,26.27
2018-06-28T08:32:33.226Z,26.79
2018-06-28T08:35:02.404Z,26.58
2018-06-28T08:37:31.520Z,26.37
2018-06-28T08:40:00.656Z,26.48
2018-06-28T08:42:29.765Z,26.41
2018-06-28T08:44:58.923Z,26.30
2018-06-28T08:47:28.127Z,27.01
2018-06-28T08:49:57.264Z,26.91
2018-06-28T08:52:26.402Z,26.48
2018-06-28T08:54:55.934Z,26.89
2018-06-28T08:57:25.065Z,26.46
2018-06-28T08:59:54.222Z,27.48
2018-06-28T09:02:23.384Z,27.64
2018-06-28T09:04:52.542Z,28.27
2018-06-28T09:07:21.811Z,28.99
2018-06-28T09:09:50.992Z,28.99
2018-06-28T09:12:20.115Z,29.13
2018-06-28T09:14:49.381Z,28.42
2018-06-28T09:17:18.516Z,28.71
2018-06-28T09:19:47.674Z,28.70
2018-06-28T09:22:16.797Z,28.17
2018-06-28T09:24:45.962Z,28.18
2018-06-28T09:27:15.102Z,28.14
2018-06-28T09:29:44.225Z,27.94
2018-06-28T09:32:13.395Z,27.97
2018-06-28T09:34:42.506Z,28.38
2018-06-28T09:37:11.633Z,28.38
2018-06-28T09:39:40.741Z,27.81
2018-06-28T09:42:09.881Z,27.51
2018-06-28T09:44:39.017Z,27.71
2018-06-28T09:47:08.141Z,28.43
2018-06-28T09:49:37.249Z,27.73
2018-06-28T09:52:06.449Z,27.53
2018-06-28T09:54:35.545Z,27.84
2018-06-28T09:57:04.680Z,28.15
2018-06-28T09:59:33.837Z,28.87
2018-06-28T10:02:02.949Z,28.10
2018-06-28T10:04:32.128Z,27.99
2018-06-28T10:07:01.254Z,27.45
2018-06-28T10:09:30.417Z,28.08
2018-06-28T10:11:59.602Z,28.16
2018-06-28T10:14:28.709Z,27.57
2018-06-28T10:16:57.842Z,27.94
2018-06-28T10:19:27.029Z,28.44
2018-06-28T10:21:56.161Z,28.60
2018-06-28T10:24:25.725Z,27.94
2018-06-28T10:26:54.862Z,28.09
2018-06-28T10:29:23.961Z,27.63
2018-06-28T10:31:53.124Z,27.57
2018-06-28T10:34:22.261Z,27.64
2018-06-28T10:36:51.377Z,27.79
2018-06-28T10:39:20.493Z,27.95
2018-06-28T10:41:49.658Z,27.70
2018-06-28T10:44:18.774Z,27.74
2018-06-28T10:46:47.940Z,27.83
2018-06-28T10:49:17.071Z,27.57
2018-06-28T10:51:46.186Z,27.98
2018-06-28T10:54:15.330Z,28.02
2018-06-28T10:56:44.499Z,28.41
2018-06-28T10:59:13.625Z,27.55
2018-06-28T11:01:42.843Z,27.43
2018-06-28T11:04:11.926Z,27.15
2018-06-28T11:06:41.077Z,26.87
2018-06-28T11:09:11.141Z,26.72
2018-06-28T11:11:40.697Z,26.50
2018-06-28T11:14:09.925Z,26.74
2018-06-28T11:16:39.056Z,27.50
2018-06-28T11:19:08.485Z,27.50
2018-06-28T11:21:37.637Z,27.63
2018-06-28T11:24:06.787Z,27.84
2018-06-28T11:26:35.990Z,28.18
2018-06-28T11:29:05.541Z,28.45
2018-06-28T11:31:34.934Z,27.91
2018-06-28T11:34:04.313Z,27.75
2018-06-28T11:36:33.381Z,27.67
2018-06-28T11:39:02.590Z,27.44
2018-06-28T11:41:31.724Z,27.39
2018-06-28T11:44:00.894Z,27.03
2018-06-28T11:46:30.014Z,27.34
2018-06-28T11:48:59.121Z,27.14
2018-06-28T11:51:28.257Z,27.48
2018-06-28T11:53:57.438Z,27.92
2018-06-28T11:56:26.546Z,27.92
2018-06-28T11:58:55.695Z,28.01
2018-06-28T12:01:24.884Z,28.20
2018-06-28T12:03:54.022Z,28.27
2018-06-28T12:06:23.150Z,28.59
2018-06-28T12:08:52.286Z,29.13
2018-06-28T12:11:21.597Z,28.92
2018-06-28T12:13:50.701Z,28.43
2018-06-28T12:16:19.853Z,28.18
2018-06-28T12:18:48.978Z,28.35
2018-06-28T12:21:18.246Z,28.41
2018-06-28T12:23:47.534Z,28.79
2018-06-28T12:26:16.669Z,27.83
2018-06-28T12:28:45.813Z,27.62
2018-06-28T12:31:14.937Z,27.73
2018-06-28T12:33:44.061Z,28.28
2018-06-28T12:36:13.276Z,28.57
2018-06-28T12:38:42.393Z,28.88
2018-06-28T12:41:11.557Z,28.86
2018-06-28T12:43:40.754Z,29.29
2018-06-28T12:46:09.962Z,29.17
2018-06-28T12:48:39.641Z,29.83
2018-06-28T12:51:09.075Z,28.84
2018-06-28T12:53:38.223Z,28.82
2018-06-28T12:56:27.667Z,28.12
2018-06-28T12:59:00.357Z,27.88
2018-06-28T13:01:29.965Z,27.82
2018-06-28T13:03:59.392Z,27.97
2018-06-28T13:06:28.693Z,28.87
2018-06-28T13:08:58.542Z,29.30
2018-06-28T13:11:28.142Z,29.20
2018-06-28T13:13:57.294Z,29.08
2018-06-28T13:16:27.791Z,29.75
2018-06-28T13:18:56.970Z,29.75
2018-06-28T13:21:26.130Z,29.70
2018-06-28T13:23:55.407Z,29.88
2018-06-28T13:26:24.518Z,29.31
2018-06-28T13:28:53.621Z,29.46
2018-06-28T13:31:22.817Z,29.55
2018-06-28T13:33:51.950Z,29.44
2018-06-28T13:36:21.073Z,29.66
2018-06-28T13:38:50.404Z,29.37
2018-06-28T13:41:19.705Z,29.62
2018-06-28T13:43:48.702Z,29.86
2018-06-28T13:46:17.877Z,29.82
2018-06-28T13:48:46.993Z,29.65
2018-06-28T13:51:16.151Z,29.55
2018-06-28T13:53:45.459Z,29.53
2018-06-28T13:56:14.622Z,29.16
2018-06-28T13:58:43.763Z,29.15
2018-06-28T14:01:12.909Z,29.33
2018-06-28T14:03:42.050Z,29.43
2018-06-28T14:06:11.157Z,29.62
2018-06-28T14:08:40.282Z,29.72
2018-06-28T14:11:14.336Z,29.70
2018-06-28T14:13:43.929Z,30.05
2018-06-28T14:16:15.100Z,29.62
2018-06-28T14:18:45.258Z,29.44
2018-06-28T14:21:14.422Z,29.10
2018-06-28T14:23:43.566Z,28.88
2018-06-28T14:26:12.674Z,28.71
2018-06-28T14:28:42.870Z,28.94
2018-06-28T14:31:11.998Z,29.32
2018-06-28T14:33:41.215Z,29.65
2018-06-28T14:36:11.561Z,29.85
2018-06-28T14:38:40.813Z,29.46
2018-06-28T14:41:10.374Z,29.64
2018-06-28T14:43:39.638Z,29.90
2018-06-28T14:46:08.780Z,30.02
2018-06-28T14:48:50.181Z,30.21
2018-06-28T14:51:19.342Z,29.91
2018-06-28T14:53:48.467Z,30.11
2018-06-28T14:56:17.634Z,30.06
2018-06-28T14:58:46.826Z,29.91
2018-06-28T15:01:15.954Z,30.17
2018-06-28T15:03:45.070Z,30.19
2018-06-28T15:06:17.321Z,30.42
2018-06-28T15:08:47.313Z,29.45
2018-06-28T15:11:16.458Z,29.32
2018-06-28T15:13:45.590Z,29.80
2018-06-28T15:16:14.851Z,29.92
2018-06-28T15:18:44.069Z,30.13
2018-06-28T15:21:14.983Z,30.03
2018-06-28T15:23:44.273Z,29.80
2018-06-28T15:26:14.489Z,29.13
2018-06-28T15:28:43.633Z,28.99
2018-06-28T15:31:12.823Z,28.81
2018-06-28T15:33:41.886Z,28.70
2018-06-28T15:36:11.140Z,28.78
2018-06-28T15:38:40.329Z,28.49
2018-06-28T15:41:09.667Z,28.35
2018-06-28T15:43:39.093Z,28.26
2018-06-28T15:46:08.237Z,28.43
2018-06-28T15:48:37.408Z,28.50
2018-06-28T15:51:07.301Z,28.59
2018-06-28T15:53:36.422Z,28.73
2018-06-28T15:56:05.771Z,28.86
2018-06-28T15:58:34.990Z,29.07
2018-06-28T16:01:04.230Z,29.27
2018-06-28T16:03:33.394Z,29.29
2018-06-28T16:06:02.678Z,29.20
2018-06-28T16:08:31.830Z,29.34
2018-06-28T16:11:00.975Z,29.19
2018-06-28T16:13:30.050Z,29.30
2018-06-28T16:15:59.158Z,29.31
2018-06-28T16:18:28.349Z,29.16
2018-06-28T16:20:57.456Z,29.31
2018-06-28T16:23:26.636Z,29.28
2018-06-28T16:25:55.846Z,29.33
2018-06-28T16:28:24.950Z,29.35
2018-06-28T16:30:54.085Z,29.29
2018-06-28T16:33:23.219Z,29.32
2018-06-28T16:35:52.325Z,29.04
2018-06-28T16:38:21.446Z,28.98
2018-06-28T16:40:50.599Z,28.99
2018-06-28T16:43:20.609Z,28.83
2018-06-28T16:45:49.971Z,28.57
2018-06-28T16:48:19.109Z,28.56
2018-06-28T16:50:48.325Z,28.26
2018-06-28T16:53:17.432Z,28.14
2018-06-28T16:55:46.574Z,28.28
2018-06-28T16:58:15.714Z,28.35
2018-06-28T17:00:44.826Z,28.41
2018-06-28T17:03:15.783Z,28.29
2018-06-28T17:05:45.497Z,28.41
2018-06-28T17:08:14.729Z,28.42
2018-06-28T17:10:43.893Z,28.41
2018-06-28T17:13:13.162Z,28.24
2018-06-28T17:15:42.282Z,28.21
2018-06-28T17:18:11.473Z,28.22
2018-06-28T17:20:41.808Z,28.20
2018-06-28T17:23:11.057Z,28.22
2018-06-28T17:25:40.184Z,28.14
2018-06-28T17:28:09.593Z,28.16
2018-06-28T17:30:38.731Z,28.09
2018-06-28T17:33:07.954Z,27.87
2018-06-28T17:35:37.209Z,27.77
2018-06-28T17:38:06.407Z,27.68
2018-06-28T17:40:35.626Z,27.69
2018-06-28T17:43:04.786Z,27.61
2018-06-28T17:45:33.992Z,27.68
2018-06-28T17:48:03.210Z,27.89
2018-06-28T17:50:32.383Z,27.79
2018-06-28T17:53:01.570Z,27.83
2018-06-28T17:55:30.742Z,27.79
2018-06-28T17:57:59.891Z,27.71
2018-06-28T18:00:29.126Z,27.57
2018-06-28T18:02:58.270Z,27.54
2018-06-28T18:05:27.401Z,27.47
2018-06-28T18:07:57.377Z,27.59
2018-06-28T18:10:26.669Z,27.44
2018-06-28T18:12:55.809Z,27.44
2018-06-28T18:15:25.056Z,27.34
2018-06-28T18:17:54.222Z,27.33
2018-06-28T18:20:23.342Z,27.31
2018-06-28T18:22:52.522Z,27.29
2018-06-28T18:25:21.749Z,27.31
2018-06-28T18:27:50.865Z,27.24
2018-06-28T18:30:20.182Z,27.14
2018-06-28T18:32:49.254Z,27.12
2018-06-28T18:35:18.405Z,27.08
2018-06-28T18:37:47.588Z,27.03
2018-06-28T18:40:16.689Z,26.96
2018-06-28T18:42:47.866Z,27.01
2018-06-28T18:45:19.007Z,26.92
2018-06-28T18:47:48.118Z,26.92
2018-06-28T18:50:17.654Z,26.84
2018-06-28T18:52:46.750Z,26.70
2018-06-28T18:55:17.234Z,26.63
2018-06-28T18:57:47.390Z,26.59
2018-06-28T19:00:16.491Z,26.64
2018-06-28T19:02:45.610Z,26.51
2018-06-28T19:05:14.766Z,26.41
2018-06-28T19:07:45.905Z,26.36
2018-06-28T19:10:20.317Z,26.32
2018-06-28T19:12:53.945Z,26.29
2018-06-28T19:16:29.054Z,26.21
2018-06-28T19:18:58.202Z,25.99
2018-06-28T19:21:32.649Z,26.06
2018-06-28T19:24:01.796Z,25.99
2018-06-28T19:26:30.937Z,25.99
2018-06-28T19:29:04.210Z,25.96
2018-06-28T19:31:38.638Z,25.96
2018-06-28T19:34:07.857Z,25.89
2018-06-28T19:36:37.039Z,25.89
2018-06-28T19:39:13.586Z,25.80
2018-06-28T19:41:48.042Z,25.71
2018-06-28T19:44:17.198Z,25.75
2018-06-28T19:46:46.305Z,25.63
2018-06-28T19:49:20.725Z,25.64
2018-06-28T19:51:55.225Z,25.63
2018-06-28T19:54:36.120Z,25.47
2018-06-28T19:57:05.281Z,25.45
2018-06-28T19:59:38.642Z,25.44
2018-06-28T20:02:13.062Z,25.35
2018-06-28T20:04:45.269Z,25.46
2018-06-28T20:07:14.441Z,25.26
2018-06-28T20:09:43.766Z,25.27
2018-06-28T20:12:18.233Z,25.23
2018-06-28T20:14:56.432Z,25.00
2018-06-28T20:17:30.717Z,24.99
2018-06-28T20:20:05.285Z,24.91
2018-06-28T20:22:34.501Z,24.89
2018-06-28T20:25:03.673Z,24.97
2018-06-28T20:27:38.486Z,24.99
2018-06-28T20:30:13.037Z,24.66
2018-06-28T20:32:47.750Z,24.60
2018-06-28T20:35:16.751Z,24.79
2018-06-28T20:37:46.006Z,24.62
2018-06-28T20:40:15.513Z,24.57
2018-06-28T20:42:48.150Z,24.48
2018-06-28T20:45:17.397Z,24.38
2018-06-28T20:47:46.632Z,24.23
2018-06-28T20:50:16.222Z,24.16
2018-06-28T20:52:45.397Z,24.25
2018-06-28T20:55:14.494Z,24.32
2018-06-28T20:57:43.610Z,23.98
2018-06-28T21:00:12.820Z,24.14
2018-06-28T21:02:41.978Z,24.03
2018-06-28T21:05:11.141Z,23.87
2018-06-28T21:07:40.349Z,23.69
2018-06-28T21:10:10.519Z,23.76
2018-06-28T21:12:39.828Z,23.86
2018-06-28T21:15:10.300Z,23.80
2018-06-28T21:17:39.449Z,23.63
2018-06-28T21:20:08.599Z,23.62
2018-06-28T21:22:37.748Z,23.64
2018-06-28T21:25:07.094Z,23.55
2018-06-28T21:27:36.290Z,23.51
2018-06-28T21:30:05.926Z,23.58
2018-06-28T21:32:35.295Z,23.52
2018-06-28T21:35:04.725Z,23.40
2018-06-28T21:37:33.885Z,23.28
2018-06-28T21:40:03.417Z,23.32
2018-06-28T21:42:32.502Z,23.27
2018-06-28T21:45:01.674Z,23.13
2018-06-28T21:47:30.833Z,22.94
2018-06-28T21:50:00.126Z,22.92
2018-06-28T21:52:29.234Z,22.90
2018-06-28T21:54:58.351Z,23.08
2018-06-28T21:57:27.441Z,22.80
2018-06-28T21:59:56.537Z,22.86
2018-06-28T22:02:25.702Z,22.98
2018-06-28T22:04:54.855Z,22.80
2018-06-28T22:07:23.952Z,22.95
2018-06-28T22:09:58.546Z,22.93
2018-06-28T22:12:27.664Z,23.10
2018-06-28T22:14:56.810Z,22.94
2018-06-28T22:17:25.913Z,22.91
2018-06-28T22:19:55.625Z,22.78
2018-06-28T22:22:24.713Z,22.46
2018-06-28T22:24:53.874Z,22.36
2018-06-28T22:27:23.096Z,22.21
2018-06-28T22:29:52.191Z,22.13
2018-06-28T22:32:21.333Z,21.96
2018-06-28T22:34:50.425Z,21.83
2018-06-28T22:37:19.640Z,21.76
2018-06-28T22:39:48.791Z,21.81
2018-06-28T22:42:17.934Z,21.77
2018-06-28T22:44:47.069Z,21.76
2018-06-28T22:47:16.184Z,21.68
2018-06-28T22:49:45.291Z,21.67
2018-06-28T22:52:14.427Z,21.76
2018-06-28T22:54:43.538Z,21.74
2018-06-28T22:57:12.734Z,21.84
2018-06-28T22:59:41.969Z,21.95
2018-06-28T23:02:11.081Z,21.92
2018-06-28T23:04:40.193Z,21.71
2018-06-28T23:07:09.325Z,21.72
2018-06-28T23:09:38.426Z,21.81
2018-06-28T23:12:07.588Z,21.67
2018-06-28T23:14:36.687Z,21.69
2018-06-28T23:17:06.078Z,21.48
2018-06-28T23:19:35.249Z,21.48
2018-06-28T23:22:04.456Z,21.39
2018-06-28T23:24:33.624Z,21.26
2018-06-28T23:27:02.870Z,21.14
2018-06-28T23:29:32.010Z,21.11
2018-06-28T23:32:01.119Z,21.10
2018-06-28T23:34:30.206Z,21.13
2018-06-28T23:36:59.309Z,21.18
2018-06-28T23:39:28.409Z,21.16
2018-06-28T23:41:57.518Z,21.18
2018-06-28T23:44:33.040Z,21.29
2018-06-28T23:47:02.140Z,21.18
2018-06-28T23:49:31.258Z,21.20
2018-06-28T23:52:00.396Z,21.23
2018-06-28T23:54:29.509Z,21.27
2018-06-28T23:56:58.617Z,21.32
2018-06-28T23:59:27.734Z,21.25
